createdAt,value
2022-09-01T00:04:18.534Z,1026.6722120502457
2022-09-01T00:10:39.163Z,1026.6573067621664
2022-09-01T00:17:00.324Z,1026.6873262406043
2022-09-01T00:23:27.145Z,1026.6716808487508
2022-09-01T00:29:48.153Z,1026.6461752492921
2022-09-01T00:36:51.688Z,1026.6520745657788
2022-09-01T00:43:13.213Z,1026.6617224196139
2022-09-01T00:49:35.275Z,1026.6546998932884
2022-09-01T00:59:45.072Z,1026.5656812093255
2022-09-01T01:06:06.274Z,1026.5936768972351
2022-09-01T01:12:27.930Z,1026.5773733715616
2022-09-01T01:18:49.294Z,1026.5502443306905
2022-09-01T01:25:19.603Z,1026.50336109949
2022-09-01T01:38:17.538Z,1026.588341901729
2022-09-01T01:44:39.000Z,1026.6736565948765
2022-09-01T01:51:38.688Z,1026.6759369049955
2022-09-01T01:58:00.576Z,1026.7030840768366
2022-09-01T02:05:41.062Z,1026.6387196699643
2022-09-01T02:12:27.116Z,1026.6256816762577
2022-09-01T02:25:07.467Z,1026.58539432099
2022-09-01T02:31:28.402Z,1026.5456111553794
2022-09-01T02:37:49.797Z,1026.5611823834092
2022-09-01T02:44:11.140Z,1026.5891001177579
2022-09-01T02:50:32.090Z,1026.5644641267356
2022-09-01T02:56:53.335Z,1026.4680376707
2022-09-01T03:03:14.882Z,1026.4396044812613
2022-09-01T03:09:35.982Z,1026.4458938600208
2022-09-01T03:15:57.574Z,1026.4861382530046
2022-09-01T03:22:18.227Z,1026.507081888982
2022-09-01T03:28:45.162Z,1026.4999595353854
2022-09-01T03:35:06.550Z,1026.4575373593502
2022-09-01T03:41:27.706Z,1026.402280270381
2022-09-01T03:47:48.772Z,1026.3411340575494
2022-09-01T04:04:46.097Z,1026.3518194636686
2022-09-01T04:11:07.178Z,1026.3391274661114
2022-09-01T04:17:30.629Z,1026.321894522573
2022-09-01T04:23:58.206Z,1026.3255628993472
2022-09-01T04:30:22.621Z,1026.3477631751732
2022-09-01T04:36:44.979Z,1026.412922506896
2022-09-01T04:43:07.794Z,1026.4175229030272
2022-09-01T04:50:12.882Z,1026.3976376134399
2022-09-01T04:57:43.669Z,1026.3987193710516
2022-09-01T05:04:07.802Z,1026.4022884544738
2022-09-01T05:10:29.844Z,1026.4434080282151
2022-09-01T05:18:31.273Z,1026.4439524510904
2022-09-01T05:27:41.810Z,1026.482559532899
2022-09-01T05:40:12.470Z,1026.49962582875
2022-09-01T05:48:23.771Z,1026.5370828168184
2022-09-01T05:54:45.507Z,1026.5742366892944
2022-09-01T06:01:07.834Z,1026.5717068132012
2022-09-01T06:07:29.813Z,1026.5611182270004
2022-09-01T06:13:55.249Z,1026.531366918311
2022-09-01T06:20:17.193Z,1026.6027197847923
2022-09-01T06:26:39.704Z,1026.6507495637195
2022-09-01T06:33:01.849Z,1026.6625639131953
2022-09-01T06:39:23.435Z,1026.6586795817107
2022-09-01T06:45:45.596Z,1026.6916969908302
2022-09-01T06:52:08.571Z,1026.7716938292153
2022-09-01T06:58:29.914Z,1026.8343085223237
2022-09-01T07:04:51.242Z,1026.8529707961707
2022-09-01T07:11:23.028Z,1026.8668717476314
2022-09-01T07:18:28.925Z,1026.889521308753
2022-09-01T07:25:35.116Z,1026.9420174852785
2022-09-01T07:34:46.418Z,1026.9815625951517
2022-09-01T07:48:01.246Z,1026.961461476269
2022-09-01T07:54:29.989Z,1026.919379812524
2022-09-01T08:04:53.776Z,1026.9368663881207
2022-09-01T08:11:15.734Z,1026.9499771318929
2022-09-01T08:17:51.177Z,1026.9589761569814
2022-09-01T08:24:20.959Z,1026.9621470174143
2022-09-01T08:33:44.694Z,1026.9553738914142
2022-09-01T08:44:53.685Z,1026.8656226281905
2022-09-01T08:51:17.262Z,1026.90129824775
2022-09-01T09:03:18.189Z,1026.87437407834
2022-09-01T09:11:55.940Z,1026.8760565748155
2022-09-01T09:18:39.243Z,1026.828321840759
2022-09-01T09:27:32.322Z,1026.7592146662369
2022-09-01T09:33:55.046Z,1026.745076975549
2022-09-01T09:44:22.864Z,1026.6262926656186
2022-09-01T09:50:45.227Z,1026.5426749647113
2022-09-01T09:57:07.948Z,1026.524952761759
2022-09-01T10:03:29.610Z,1026.4922196339317
2022-09-01T10:09:51.621Z,1026.467849017524
2022-09-01T10:16:13.433Z,1026.4080463180392
2022-09-01T10:22:48.381Z,1026.3906064211953
2022-09-01T10:29:11.985Z,1026.3468383606862
2022-09-01T10:35:39.791Z,1026.3037851164509
2022-09-01T10:42:02.419Z,1026.2529375712438
2022-09-01T10:48:31.128Z,1026.2487734062092
2022-09-01T10:54:55.821Z,1026.1839275325867
2022-09-01T11:01:46.646Z,1026.1939289887093
2022-09-01T11:23:13.458Z,1025.9806716699668
2022-09-01T11:29:36.464Z,1025.967842675347
2022-09-01T11:35:57.942Z,1025.9029291319284
2022-09-01T11:42:20.849Z,1025.8790387384227
2022-09-01T11:48:43.882Z,1025.9224511445952
2022-09-01T11:55:06.074Z,1025.9059530657562
2022-09-01T12:01:27.972Z,1025.8555742412154
2022-09-01T12:07:50.488Z,1025.796637491832
2022-09-01T12:14:13.565Z,1025.7424604798002
2022-09-01T12:20:35.031Z,1025.719020451276
2022-09-01T12:27:04.041Z,1025.6607147048762
2022-09-01T12:33:26.094Z,1025.633546219712
2022-09-01T12:39:48.221Z,1025.6609309982869
2022-09-01T12:46:23.855Z,1025.5798587285744
2022-09-01T12:52:46.076Z,1025.530276273679
2022-09-01T12:59:14.138Z,1025.5406659816636
2022-09-01T13:05:42.201Z,1025.5244928272855
2022-09-01T13:12:06.219Z,1025.444153927458
2022-09-01T13:24:52.418Z,1025.418346189212
2022-09-01T13:36:42.889Z,1025.3586865064356
2022-09-01T13:43:06.343Z,1025.2700915038056
2022-09-01T13:50:05.314Z,1025.1885770322988
2022-09-01T13:56:29.509Z,1025.1226076013363
2022-09-01T14:02:51.123Z,1025.128699168545
2022-09-01T14:09:16.979Z,1025.0810418295562
2022-09-01T14:15:40.885Z,1024.967694208067
2022-09-01T14:22:02.802Z,1024.9191771435596
2022-09-01T14:28:30.233Z,1024.898609435897
2022-09-01T14:34:51.628Z,1024.8323579672553
2022-09-01T14:47:24.177Z,1024.6959998442558
2022-09-01T14:53:48.690Z,1024.6197368387238
2022-09-01T15:09:43.146Z,1024.5344186536915
2022-09-01T15:24:25.270Z,1024.341530533535
2022-09-01T15:30:46.676Z,1024.2482897560606
2022-09-01T15:37:08.524Z,1024.2458778400212
2022-09-01T15:43:30.099Z,1024.2189539345734
2022-09-01T15:49:51.910Z,1024.2092380154209
2022-09-01T15:56:13.571Z,1024.1569341668687
2022-09-01T16:02:39.274Z,1024.1448069923433
2022-09-01T16:09:01.996Z,1024.103226195522
2022-09-01T16:15:23.820Z,1024.0867342806557
2022-09-01T16:24:07.875Z,1024.033428591291
2022-09-01T16:30:30.467Z,1023.9824428894678
2022-09-01T16:37:45.752Z,1023.9744183875007
2022-09-01T16:44:07.118Z,1023.925500824369
2022-09-01T16:50:27.890Z,1023.869834717835
2022-09-01T16:56:48.768Z,1023.8254643297588
2022-09-01T17:03:09.826Z,1023.818631123541
2022-09-01T17:13:15.110Z,1023.8004772634552
2022-09-01T17:19:35.965Z,1023.8138217705792
2022-09-01T17:26:03.354Z,1023.8508654621052
2022-09-01T17:36:52.438Z,1023.8886222035833
2022-09-01T17:43:27.710Z,1023.9259633504998
2022-09-01T17:49:52.549Z,1023.9588449853048
2022-09-01T17:56:19.977Z,1023.9731192301156
2022-09-01T18:02:44.293Z,1023.9772723811458
2022-09-01T18:10:33.019Z,1023.9947974651454
2022-09-01T18:16:55.591Z,1023.9671380809301
2022-09-01T18:23:18.974Z,1023.9633137459517
2022-09-01T18:29:51.262Z,1024.0164873501515
2022-09-01T18:36:12.604Z,1024.0970617872865
2022-09-01T18:42:34.357Z,1024.1492235795797
2022-09-01T18:48:56.516Z,1024.164496631172
2022-09-01T19:06:12.287Z,1024.2861816710686
2022-09-01T19:12:34.213Z,1024.2931913916675
2022-09-01T19:18:56.579Z,1024.31424126378
2022-09-01T19:27:19.269Z,1024.3029204473012
2022-09-01T19:38:01.538Z,1024.314758248348
2022-09-01T19:44:24.183Z,1024.3565683517784
2022-09-01T19:50:47.070Z,1024.3670876571946
2022-09-01T19:57:09.331Z,1024.4135451248792
2022-09-01T20:08:17.984Z,1024.4987982010834
2022-09-01T20:14:42.029Z,1024.4837032545272
2022-09-01T20:21:05.228Z,1024.4880038246472
2022-09-01T20:27:30.957Z,1024.494602951186
2022-09-01T20:33:52.069Z,1024.5480275807652
2022-09-01T20:43:06.013Z,1024.5959617613128
2022-09-01T20:49:25.973Z,1024.5880410875602
2022-09-01T20:56:37.413Z,1024.6326845987683
2022-09-01T21:02:58.445Z,1024.6656708246444
2022-09-01T21:13:36.413Z,1024.7048305767598
2022-09-01T21:19:59.906Z,1024.7277593520778
2022-09-01T21:26:48.293Z,1024.655417848796
2022-09-01T21:33:28.810Z,1024.6356916485106
2022-09-01T21:44:48.002Z,1024.5648469934338
2022-09-01T21:51:20.156Z,1024.5219275978404
2022-09-01T21:57:42.433Z,1024.4977725808565
2022-09-01T22:04:03.932Z,1024.5141706693853
2022-09-01T22:10:25.570Z,1024.508349716193
2022-09-01T22:16:46.268Z,1024.536933884298
2022-09-01T22:23:13.827Z,1024.556393148893
2022-09-01T22:29:34.686Z,1024.518319683345
2022-09-01T22:35:54.673Z,1024.5316179421627
2022-09-01T22:42:16.651Z,1024.5486962196296
2022-09-01T22:51:37.127Z,1024.5569788541163
2022-09-01T22:57:58.291Z,1024.553421713826
2022-09-01T23:05:06.138Z,1024.5057397733756
2022-09-01T23:11:26.956Z,1024.436687633724
2022-09-01T23:21:39.025Z,1024.4351571203367
2022-09-01T23:28:05.616Z,1024.4059745534046
2022-09-01T23:34:26.518Z,1024.3522664185223
2022-09-01T23:40:47.923Z,1024.3153205368537
2022-09-01T23:47:08.766Z,1024.2860637507551
2022-09-01T23:53:29.189Z,1024.2258312575402
